Virgilina, Virginia
Current Conditions -  °F | °C
As of 11:35 PM on Wednesday 22 Oct 2014 (Local Time) from KW78 Reporting Station
Clear Clear  
Wind Chill: 51°   Ceiling: Unl
Heat Index: 51°   Visibility: 10mi
Dew Point: 40°   Wind: 10mph
Humidity: 67%   Direction: 300°WNW
Pressure: 30.02"   Gusts: NA
Location:  36.55°N, 78.77°W
Report Text: KW78 230335Z AUTO 30009KT 10SM CLR 11/05 A3002 RMK AO1 T01060046
Loading
Personal Weather Stations






























Interactive Weather Map
Tropical Storm Tracking
New forecast layout! Learn more

10-Day Weather Forecast

Advertisements
Track Severe Weather on mobile